Taos Ski Valley, NM

7:21 PM MDT on September 30, 2014 (GMT -0600)
Canon | Change Station
CLOSE
Current Station
Personal Weather Station
Location: Taos, NM
Elevation: 7001 ft
Nearby Weather Stations

Elev 7001 ft 36.39 °N, 105.56 °W | Updated 14 minutes ago

Clear
Clear
55.0 °F
Feels Like 55.0 °F
N
3.2
Wind Variable Wind from West

Today
High -- | Low -- °F
--% Chance of Precip.
Yesterday
High -- | Low -- °F
Precip. -- in
6:56 AM 6:47 PM
Waxing Crescent, 42% visible
Pressure 30.03 in
Visibility 10.0 miles
Clouds Clear
Dew Point 36 °F
Humidity 48%
Rainfall 0.02 in
Snow Depth 0 in , 0 in , 3 in
UV 0 out of 12
Pollen 4.60 out of 12
Air Quality Not available.
Flu Activity Not available.
METAR KSKX 010115Z AUTO 28009KT 10SM CLR 12/M01 A3003 RMK AO1

More Conditions Fewer Conditions

Pressure 30.03 in
Visibility 10.0 miles
Clouds Clear
Dew Point 36 °F
Humidity 48%
Rainfall 0.02 in
Snow Depth 0 in , 0 in , 3 in
UV 0 out of 12
Pollen 4.60 out of 12
Air Quality Not available.
Flu Activity Not available.
METAR KSKX 010115Z AUTO 28009KT 10SM CLR 12/M01 A3003 RMK AO1

More Conditions Fewer Conditions

10-Day Weather Forecast

Almanac

Astronomy

Sep. 30, 2014 Rise Set
Actual Time 6:56 AM MDT 6:47 PM MDT
Civil Twilight 6:31 AM MDT 7:12 PM MDT
Nautical Twilight 6:01 AM MDT 7:42 PM MDT
Astronomical Twilight 5:31 AM MDT 8:12 PM MDT
Moon 12:59 PM MDT (9/30) 11:27 PM MDT (9/30)
Length of Visible Light 12h 41m
Length of Day
11h 50m
Tomorrow will be 2m 17s shorter.
Waxing Crescent, 42% of the Moon is Illuminated
Today
Waxing Crescent
Oct 1
First Quarter
Oct 8
Full
Oct 15
Last Quarter
Oct 23
New

Today's Extremes

State Highs State Lows

Community

WunderPhotos

Upload Photos

1,757,815 photos uploaded!

Nearby

Snow Depth

Station Depth Elevation
Santa Fe 0 in 11445 ft
Elk Cabin 0 in 8210 ft
Wesner Springs 3 in 11120 ft
Silver Creek Divide 21 in 9000 ft
Sierra Blanca 0 in 10280 ft

Earthquake Activity

City Distance Mag. Time & Date
Trinidad, Colorado 57 miles 2.9 3:55 AM MDT
2014-09-30
Minimum magnitude displayed is 2.5.

Coastal Water Temperatures

Place Temperature
No Stations Reporting

Nearby Weather Stations